Time;durP1;ratioP1;P1;durP2;ratioP2;P2;SDS_P1;SDS_P2;PMS_P1;PMS_P2;Temp;Humidity;BMP_temperature;BMP_pressure;BME280_temperature;BME280_humidity;BME280_pressure;Samples;Min_cycle;Max_cycle;Signal;HPM_P1;HPM_P2
2024/04/12 00:02:04;;;;;;;33.30;23.10;;;;;;;7.27;77.64;100308.43;227286;1270;22557;-74
2024/04/12 00:07:13;;;;;;;29.70;22.00;;;;;;;7.25;78.07;100305.79;227282;1269;22519;-74
2024/04/12 00:12:19;;;;;;;33.70;22.50;;;;;;;7.23;78.04;100309.98;227312;1269;24147;-74
2024/04/12 00:17:21;;;;;;;31.30;22.00;;;;;;;7.21;78.13;100307.16;227375;1260;22577;-73
2024/04/12 00:22:24;;;;;;;33.70;22.70;;;;;;;7.19;78.22;100306.64;227351;1267;22558;-73
2024/04/12 00:27:26;;;;;;;33.90;25.10;;;;;;;7.19;78.38;100304.36;227341;1268;22575;-73
2024/04/12 00:32:27;;;;;;;37.50;25.50;;;;;;;7.20;78.46;100304.46;227360;1264;22551;-74
2024/04/12 00:37:33;;;;;;;36.40;24.80;;;;;;;7.20;78.86;100301.25;227308;1270;24355;-73
2024/04/12 00:42:34;;;;;;;35.60;26.20;;;;;;;7.21;78.82;100302.98;227337;1254;22535;-72
2024/04/12 00:47:37;;;;;;;32.50;22.50;;;;;;;7.21;78.80;100301.06;227374;1270;23008;-74
2024/04/12 00:52:43;;;;;;;29.60;21.80;;;;;;;7.18;78.57;100302.87;227345;1270;22541;-74
2024/04/12 00:57:45;;;;;;;30.60;23.00;;;;;;;7.12;78.66;100300.44;227325;1270;22842;-73
2024/04/12 01:02:48;;;;;;;30.40;22.80;;;;;;;7.07;78.47;100305.35;227328;1264;22542;-72
2024/04/12 01:07:55;;;;;;;32.10;23.90;;;;;;;7.06;78.94;100300.71;227340;1270;22542;-73
2024/04/12 01:13:02;;;;;;;34.70;24.60;;;;;;;7.05;79.19;100295.70;227311;1270;22548;-73
2024/04/12 01:18:11;;;;;;;34.00;24.70;;;;;;;7.06;79.06;100299.10;227139;1272;209431;-72
2024/04/12 01:23:16;;;;;;;36.50;25.60;;;;;;;7.06;79.54;100304.54;227338;1270;22539;-73
2024/04/12 01:28:19;;;;;;;33.00;25.60;;;;;;;7.07;79.41;100306.08;227278;1272;22639;-73
2024/04/12 01:33:21;;;;;;;37.80;27.10;;;;;;;7.08;79.32;100298.46;227314;1260;22545;-72
2024/04/12 01:38:23;;;;;;;36.60;26.00;;;;;;;7.10;79.63;100292.70;227315;1272;22550;-73
2024/04/12 01:43:26;;;;;;;35.80;26.50;;;;;;;7.10;79.61;100288.64;227351;1268;22543;-73
2024/04/12 01:48:28;;;;;;;36.80;26.30;;;;;;;7.12;79.61;100289.90;227344;1272;22543;-74
2024/04/12 01:53:38;;;;;;;34.70;24.60;;;;;;;7.12;79.61;100295.73;227321;1267;22555;-72
2024/04/12 01:58:42;;;;;;;33.40;24.30;;;;;;;7.12;79.94;100297.25;227106;1272;25262;-74
2024/04/12 02:03:44;;;;;;;31.60;22.40;;;;;;;7.14;79.97;100296.39;227299;1270;22547;-73
2024/04/12 02:08:48;;;;;;;34.00;23.20;;;;;;;7.14;79.69;100298.13;227339;1270;22528;-73
2024/04/12 02:13:53;;;;;;;36.20;25.60;;;;;;;7.15;79.82;100294.04;227088;1272;22630;-73
2024/04/12 02:18:56;;;;;;;29.60;22.50;;;;;;;7.13;79.92;100296.49;227281;1270;22533;-73
2024/04/12 02:24:01;;;;;;;32.80;23.10;;;;;;;7.08;80.07;100298.11;227297;1267;22729;-74
2024/04/12 02:29:04;;;;;;;34.80;24.60;;;;;;;7.03;80.01;100308.30;227385;1268;22531;-73
2024/04/12 02:34:07;;;;;;;32.10;25.20;;;;;;;6.98;80.16;100302.80;227352;1269;25405;-73
2024/04/12 02:39:09;;;;;;;33.80;25.60;;;;;;;6.93;79.78;100299.02;227248;1270;22643;-74
2024/04/12 02:44:11;;;;;;;38.50;26.10;;;;;;;6.88;79.79;100297.66;227325;1269;22542;-74
2024/04/12 02:49:14;;;;;;;35.10;26.10;;;;;;;6.84;79.82;100293.09;227312;1269;22549;-73
2024/04/12 02:54:16;;;;;;;38.10;27.70;;;;;;;6.80;80.22;100291.52;227338;1268;22546;-74
2024/04/12 02:59:18;;;;;;;40.00;28.20;;;;;;;6.76;80.13;100291.52;227059;1272;22538;-73
2024/04/12 03:04:20;;;;;;;32.90;25.90;;;;;;;6.71;80.09;100297.30;227339;1270;22536;-73
2024/04/12 03:09:22;;;;;;;32.00;24.70;;;;;;;6.65;80.46;100303.05;227325;1268;22556;-73
2024/04/12 03:14:24;;;;;;;36.30;26.00;;;;;;;6.60;80.29;100304.34;227306;1266;22546;-73
2024/04/12 03:19:27;;;;;;;37.60;26.10;;;;;;;6.56;80.44;100305.24;227357;1269;22543;-73
2024/04/12 03:24:29;;;;;;;34.90;25.50;;;;;;;6.53;80.50;100308.45;227274;1272;22539;-73
2024/04/12 03:29:31;;;;;;;34.50;25.40;;;;;;;6.47;80.64;100313.63;227306;1269;22995;-73
2024/04/12 03:34:36;;;;;;;33.70;24.00;;;;;;;6.43;80.56;100312.56;227266;1269;22629;-73
2024/04/12 03:39:38;;;;;;;34.30;25.50;;;;;;;6.39;80.69;100313.77;227318;1251;24276;-73
2024/04/12 03:44:42;;;;;;;35.70;25.40;;;;;;;6.36;80.90;100314.89;227249;1268;22553;-73
2024/04/12 03:49:44;;;;;;;35.40;26.50;;;;;;;6.34;80.83;100315.25;227125;1270;22538;-74
2024/04/12 03:54:46;;;;;;;38.50;28.00;;;;;;;6.31;81.12;100321.21;227346;1269;22618;-74
2024/04/12 03:59:57;;;;;;;37.70;27.40;;;;;;;6.28;81.30;100317.09;227057;1272;22592;-73
2024/04/12 04:05:13;;;;;;;41.60;29.80;;;;;;;6.25;81.38;100318.42;227263;1268;22532;-73
2024/04/12 04:10:15;;;;;;;40.80;30.30;;;;;;;6.22;81.33;100320.41;227404;1272;22602;-73
2024/04/12 04:15:18;;;;;;;37.90;28.10;;;;;;;6.21;81.32;100319.09;227302;1268;22709;-73
2024/04/12 04:20:20;;;;;;;40.60;28.60;;;;;;;6.21;81.54;100319.77;227328;1269;23064;-73
2024/04/12 04:25:22;;;;;;;37.80;27.60;;;;;;;6.23;81.27;100323.34;227337;1268;23647;-73
2024/04/12 04:30:25;;;;;;;38.00;28.50;;;;;;;6.27;81.55;100325.23;227295;1272;24064;-74
2024/04/12 04:35:28;;;;;;;36.50;29.00;;;;;;;6.33;81.79;100323.87;227287;1269;22540;-73
2024/04/12 04:40:29;;;;;;;41.30;29.50;;;;;;;6.42;81.74;100326.65;227276;1270;22547;-73
2024/04/12 04:45:32;;;;;;;44.60;31.70;;;;;;;6.59;81.49;100325.30;227292;1272;22563;-73
2024/04/12 04:50:36;;;;;;;37.70;29.30;;;;;;;6.79;81.91;100324.71;227279;1270;22545;-72
2024/04/12 04:55:44;;;;;;;37.40;29.70;;;;;;;6.97;81.81;100327.70;227345;1270;22546;-73
2024/04/12 05:00:49;;;;;;;44.30;32.20;;;;;;;7.12;81.88;100328.07;227292;1269;22549;-72
2024/04/12 05:05:52;;;;;;;38.80;31.60;;;;;;;7.24;81.84;100330.92;227347;1270;22535;-72
2024/04/12 05:10:55;;;;;;;38.00;28.90;;;;;;;7.29;81.79;100329.75;227240;1269;22576;-73
2024/04/12 05:15:58;;;;;;;39.40;31.10;;;;;;;7.34;81.68;100326.50;227358;1270;24382;-73
2024/04/12 05:20:59;;;;;;;38.00;30.40;;;;;;;7.42;81.64;100322.90;227287;1272;22528;-73
2024/04/12 05:26:01;;;;;;;40.50;31.80;;;;;;;7.54;81.90;100323.45;227296;1270;22530;-73
2024/04/12 05:31:03;;;;;;;38.40;28.50;;;;;;;7.69;81.87;100317.98;227309;1270;22530;-73
2024/04/12 05:36:09;;;;;;;37.80;29.30;;;;;;;7.85;81.51;100315.53;227309;1269;25413;-73
2024/04/12 05:41:15;;;;;;;35.90;27.50;;;;;;;8.08;81.94;100316.86;227282;1270;22552;-73
2024/04/12 05:46:16;;;;;;;35.10;26.80;;;;;;;8.36;81.77;100316.31;226987;1267;23028;-73
2024/04/12 05:51:18;;;;;;;37.70;29.90;;;;;;;8.66;81.72;100324.86;226972;1267;22566;-72
2024/04/12 05:56:25;;;;;;;29.80;23.20;;;;;;;8.96;81.40;100320.52;226784;1253;22548;-73
2024/04/12 06:01:33;;;;;;;28.70;23.10;;;;;;;9.33;81.12;100312.92;226852;1269;25348;-73
2024/04/12 06:06:35;;;;;;;27.60;23.20;;;;;;;9.75;81.05;100310.54;226625;1254;22539;-72
2024/04/12 06:11:37;;;;;;;25.20;20.30;;;;;;;10.08;80.67;100312.47;226710;1267;22554;-74
2024/04/12 06:16:40;;;;;;;28.10;21.10;;;;;;;10.30;80.13;100321.05;226475;1257;25425;-72
2024/04/12 06:21:48;;;;;;;25.90;21.20;;;;;;;10.47;79.55;100322.61;226857;1258;24753;-73
2024/04/12 06:26:51;;;;;;;38.00;19.60;;;;;;;10.59;79.34;100320.00;226577;1257;24368;-73
2024/04/12 06:31:54;;;;;;;21.30;17.40;;;;;;;10.72;79.15;100317.52;226776;1264;24296;-73
2024/04/12 06:37:05;;;;;;;20.30;15.60;;;;;;;10.87;78.98;100319.56;226826;1263;22538;-74
2024/04/12 06:42:08;;;;;;;19.90;15.10;;;;;;;11.08;78.72;100325.00;226842;1265;22547;-74
2024/04/12 06:47:13;;;;;;;18.70;15.20;;;;;;;11.32;78.61;100321.19;226715;1257;22535;-73
2024/04/12 06:52:20;;;;;;;16.80;14.20;;;;;;;11.66;78.57;100319.64;226741;1267;22565;-73
2024/04/12 06:57:24;;;;;;;18.00;14.20;;;;;;;12.11;77.39;100315.64;226555;1267;22621;-72
2024/04/12 07:02:29;;;;;;;16.60;11.80;;;;;;;12.64;76.99;100317.48;226689;1256;22547;-73
2024/04/12 07:07:32;;;;;;;14.90;11.00;;;;;;;13.09;76.06;100316.86;226720;1267;22919;-73
2024/04/12 07:12:37;;;;;;;16.30;11.40;;;;;;;13.43;74.77;100321.16;226449;1263;22635;-71
2024/04/12 07:17:39;;;;;;;14.10;10.70;;;;;;;13.73;74.39;100315.85;226353;1251;22600;-74
2024/04/12 07:22:42;;;;;;;13.70;9.80;;;;;;;13.92;73.70;100317.41;226602;1250;22539;-73
2024/04/12 07:27:47;;;;;;;12.20;9.10;;;;;;;14.13;73.52;100319.09;226346;1257;23067;-74
2024/04/12 07:32:50;;;;;;;11.20;8.60;;;;;;;14.47;72.98;100322.46;226499;1258;22539;-74
2024/04/12 07:37:59;;;;;;;13.90;9.20;;;;;;;14.69;72.07;100321.53;226790;1251;22569;-74
2024/04/12 07:43:09;;;;;;;14.20;9.60;;;;;;;14.74;71.67;100317.11;226529;1258;22565;-75
2024/04/12 07:53:30;;;;;;;9.90;8.90;;;;;;;14.78;70.15;100323.17;226828;1254;22550;-76
2024/04/12 07:58:34;;;;;;;11.30;8.60;;;;;;;14.89;70.12;100317.70;226918;1266;22578;-75
2024/04/12 08:03:37;;;;;;;12.10;8.00;;;;;;;14.99;69.66;100315.09;226821;1268;22589;-76
2024/04/12 08:08:45;;;;;;;12.50;7.00;;;;;;;15.10;69.08;100309.84;227015;1269;22539;-75
2024/04/12 08:13:50;;;;;;;13.00;8.20;;;;;;;15.25;68.68;100309.98;226927;1270;22559;-77
2024/04/12 08:18:54;;;;;;;9.10;6.90;;;;;;;15.44;68.23;100309.06;226679;1264;22556;-74
2024/04/12 08:23:57;;;;;;;10.80;7.30;;;;;;;15.58;67.23;100306.11;226755;1269;24979;-74
2024/04/12 08:29:00;;;;;;;9.60;6.50;;;;;;;15.70;66.65;100310.20;226985;1257;22542;-75
2024/04/12 08:34:07;;;;;;;6.80;5.10;;;;;;;15.84;65.86;100306.86;226805;1270;22612;-77
2024/04/12 08:39:25;;;;;;;8.50;6.00;;;;;;;16.00;65.02;100304.94;226696;1270;25329;-74
2024/04/12 08:44:30;;;;;;;8.10;5.20;;;;;;;16.14;64.80;100297.86;226768;1266;22523;-74
2024/04/12 08:49:32;;;;;;;6.00;4.30;;;;;;;16.31;64.07;100297.56;226953;1269;22542;-74
2024/04/12 08:54:41;;;;;;;7.00;5.00;;;;;;;16.46;63.03;100295.59;227201;1266;25434;-73
2024/04/12 08:59:46;;;;;;;7.10;5.20;;;;;;;16.62;62.71;100292.53;227008;1267;25581;-74
2024/04/12 09:04:48;;;;;;;6.70;4.50;;;;;;;16.80;62.55;100290.80;226871;1251;22534;-74
2024/04/12 09:09:54;;;;;;;6.70;4.50;;;;;;;16.95;61.66;100283.58;226786;1266;22555;-74
2024/04/12 09:14:59;;;;;;;6.10;3.80;;;;;;;17.10;61.46;100283.30;226515;1267;22537;-74
2024/04/12 09:20:03;;;;;;;4.30;2.80;;;;;;;17.32;60.92;100279.02;226666;1267;22542;-80
2024/04/12 09:25:14;;;;;;;5.10;2.70;;;;;;;17.52;59.85;100278.59;226595;1268;23125;-75
2024/04/12 09:35:39;;;;;;;6.60;2.50;;;;;;;17.94;58.76;100268.36;227076;1261;25460;-75
2024/04/12 09:40:52;;;;;;;5.40;3.00;;;;;;;18.10;58.08;100259.54;227159;1257;22567;-75
2024/04/12 09:46:08;;;;;;;4.60;2.60;;;;;;;18.14;57.36;100249.38;226983;1251;23044;-74
2024/04/12 10:39:44;;;;;;;3.80;2.00;;;;;;;18.91;54.54;100200.84;226873;1267;24733;-75
2024/04/12 10:44:56;;;;;;;2.80;2.10;;;;;;;19.03;54.20;100192.16;226837;1257;22546;-74
2024/04/12 10:49:58;;;;;;;5.80;2.90;;;;;;;19.19;54.15;100188.35;226839;1269;22643;-74
2024/04/12 10:55:09;;;;;;;4.50;2.90;;;;;;;19.26;53.79;100181.20;227042;1268;22578;-75
2024/04/12 11:00:15;;;;;;;10.00;8.30;;;;;;;19.36;53.99;100175.61;226979;1266;22583;-74
2024/04/12 11:10:24;;;;;;;6.40;4.30;;;;;;;19.53;53.34;100170.85;226934;1257;23068;-73
2024/04/12 11:31:14;;;;;;;6.60;5.10;;;;;;;20.02;52.96;100160.79;227162;1266;25212;-77
2024/04/12 11:36:21;;;;;;;5.90;4.60;;;;;;;20.12;52.55;100151.23;227036;1270;22565;-75
2024/04/12 11:41:24;;;;;;;5.00;3.70;;;;;;;20.25;52.15;100144.38;227277;1267;22542;-78
2024/04/12 11:46:26;;;;;;;6.00;4.30;;;;;;;20.36;52.07;100134.92;226853;1251;22550;-74
2024/04/12 11:51:33;;;;;;;5.00;4.30;;;;;;;20.44;51.58;100127.58;226949;1264;22476;-75
2024/04/12 11:56:35;;;;;;;6.00;4.00;;;;;;;20.38;50.95;100116.27;227057;1266;22547;-73
2024/04/12 12:01:41;;;;;;;6.30;4.30;;;;;;;20.34;51.31;100110.35;227151;1265;22634;-74
2024/04/12 12:06:43;;;;;;;7.00;3.30;;;;;;;20.37;51.13;100098.63;227148;1267;22619;-74
2024/04/12 12:11:47;;;;;;;4.80;3.60;;;;;;;20.50;51.42;100090.77;227155;1266;22591;-74
2024/04/12 12:16:49;;;;;;;5.50;4.20;;;;;;;20.74;51.31;100088.45;227014;1269;24261;-74
2024/04/12 12:21:51;;;;;;;6.90;4.70;;;;;;;21.00;50.76;100088.56;226992;1257;22996;-74
2024/04/12 12:26:53;;;;;;;6.80;5.00;;;;;;;21.22;50.34;100082.79;227132;1267;22538;-74
2024/04/12 12:31:56;;;;;;;5.70;4.40;;;;;;;21.47;50.23;100085.75;227227;1263;22608;-73
2024/04/12 12:36:59;;;;;;;8.20;4.60;;;;;;;21.64;49.44;100084.48;227208;1267;22534;-74
2024/04/12 12:42:01;;;;;;;4.00;3.60;;;;;;;21.80;49.36;100079.91;227205;1251;22565;-74
2024/04/12 12:47:05;;;;;;;5.70;3.00;;;;;;;21.90;48.97;100076.51;227086;1267;22887;-74
2024/04/12 12:52:11;;;;;;;4.70;3.70;;;;;;;21.91;48.91;100064.48;227096;1251;22535;-75
2024/04/12 12:57:15;;;;;;;6.30;3.40;;;;;;;21.86;48.95;100046.54;227185;1266;22565;-75
2024/04/12 13:02:17;;;;;;;5.10;3.00;;;;;;;21.79;49.51;100043.89;227295;1256;22539;-75
2024/04/12 13:07:22;;;;;;;5.60;2.30;;;;;;;21.69;48.94;100035.33;226981;1257;22659;-75
2024/04/12 13:12:28;;;;;;;4.70;2.90;;;;;;;21.56;48.90;100036.23;227163;1257;22585;-76
2024/04/12 13:17:36;;;;;;;4.00;2.40;;;;;;;21.40;48.95;100030.90;226909;1253;190080;-75
2024/04/12 13:22:38;;;;;;;4.80;2.70;;;;;;;21.37;49.02;100022.01;227120;1257;22561;-74
2024/04/12 13:27:41;;;;;;;2.80;1.90;;;;;;;21.29;49.10;100010.83;227197;1266;22555;-74
2024/04/12 13:32:52;;;;;;;4.00;2.40;;;;;;;21.31;49.34;100004.52;227159;1260;22551;-74
2024/04/12 13:37:55;;;;;;;3.50;2.10;;;;;;;21.36;49.50;99991.59;227176;1266;22569;-78
2024/04/12 13:42:59;;;;;;;6.40;2.20;;;;;;;21.37;49.46;99988.83;227018;1249;22565;-74
2024/04/12 13:53:32;;;;;;;7.70;2.30;;;;;;;21.32;49.39;99977.24;227117;1266;22535;-74
2024/04/12 13:58:34;;;;;;;3.90;2.40;;;;;;;21.31;49.67;99975.65;226670;1258;22542;-74
2024/04/12 14:03:36;;;;;;;5.70;2.70;;;;;;;21.38;49.68;99969.21;226391;1272;22557;-74
2024/04/12 14:08:38;;;;;;;3.60;2.10;;;;;;;21.33;49.40;99970.77;226596;1269;22558;-75
2024/04/12 14:13:42;;;;;;;4.70;2.40;;;;;;;21.29;49.57;99967.84;226695;1272;22546;-75
2024/04/12 14:18:48;;;;;;;4.50;2.10;;;;;;;21.27;49.62;99960.44;226355;1273;24212;-75
2024/04/12 14:23:50;;;;;;;4.00;2.20;;;;;;;21.31;49.79;99956.62;226471;1266;22545;-73
2024/04/12 14:28:52;;;;;;;4.20;2.10;;;;;;;21.39;49.87;99952.09;226569;1271;22995;-74
2024/04/12 14:33:54;;;;;;;3.40;2.40;;;;;;;21.44;49.85;99946.15;226665;1273;22554;-74
2024/04/12 14:38:56;;;;;;;5.50;2.90;;;;;;;21.51;50.34;99947.01;226811;1269;22569;-74
2024/04/12 14:43:58;;;;;;;7.60;3.20;;;;;;;21.54;50.13;99941.98;226863;1273;22584;-74
2024/04/12 14:49:00;;;;;;;6.20;2.30;;;;;;;21.57;50.28;99934.63;226876;1261;22549;-74
2024/04/12 14:54:05;;;;;;;5.10;2.50;;;;;;;21.55;49.90;99918.98;226879;1270;22594;-75
2024/04/12 14:59:07;;;;;;;4.40;2.20;;;;;;;21.54;49.94;99912.60;226893;1266;24239;-75
2024/04/12 15:52:11;;;;;;;5.20;1.90;;;;;;;20.94;50.54;99869.86;226854;1269;22542;-75
2024/04/12 16:13:21;;;;;;;4.30;2.10;;;;;;;20.60;51.15;99854.73;226873;1270;22547;-75
2024/04/12 16:18:23;;;;;;;3.70;1.90;;;;;;;20.57;51.50;99858.96;226913;1272;23465;-75
2024/04/12 16:23:27;;;;;;;4.60;1.50;;;;;;;20.53;51.37;99857.94;226805;1266;25285;-74
2024/04/12 16:28:29;;;;;;;2.00;1.20;;;;;;;20.45;51.49;99858.32;226873;1270;22545;-74
2024/04/12 16:33:30;;;;;;;2.10;1.20;;;;;;;20.35;51.67;99856.94;226806;1270;22560;-73
2024/04/12 16:38:35;;;;;;;2.70;1.50;;;;;;;20.21;51.60;99856.10;226806;1266;24250;-74
2024/04/12 16:43:37;;;;;;;2.50;1.40;;;;;;;20.02;52.01;99849.09;226833;1269;22534;-76
2024/04/12 16:48:40;;;;;;;3.10;1.40;;;;;;;19.81;52.36;99850.59;226831;1273;22552;-75
2024/04/12 16:53:42;;;;;;;3.00;1.60;;;;;;;19.57;52.80;99851.47;226816;1270;22623;-75
2024/04/12 16:58:44;;;;;;;3.80;2.20;;;;;;;19.35;53.44;99849.66;226845;1270;22546;-75
2024/04/12 17:03:46;;;;;;;3.60;1.50;;;;;;;19.12;53.75;99842.73;226850;1266;22581;-75
2024/04/12 17:08:48;;;;;;;5.70;1.60;;;;;;;18.91;54.29;99848.45;226894;1270;22535;-75
2024/04/12 17:13:50;;;;;;;3.20;1.70;;;;;;;18.70;54.64;99840.70;226828;1266;22581;-75
2024/04/12 17:18:51;;;;;;;4.60;1.40;;;;;;;18.48;54.82;99836.21;226871;1270;25425;-75
2024/04/12 17:23:54;;;;;;;3.60;1.90;;;;;;;18.29;55.33;99845.19;226916;1253;22562;-75
2024/04/12 17:28:55;;;;;;;3.40;1.60;;;;;;;18.12;55.64;99846.94;226855;1269;22552;-75
2024/04/12 17:33:57;;;;;;;6.50;1.70;;;;;;;17.98;55.81;99849.65;226954;1272;22534;-74
2024/04/12 17:39:08;;;;;;;5.20;2.30;;;;;;;17.80;56.05;99839.56;226848;1269;22538;-75
2024/04/12 17:44:10;;;;;;;4.80;2.30;;;;;;;17.63;56.43;99839.77;226752;1269;22628;-75
2024/04/12 17:49:13;;;;;;;3.80;2.50;;;;;;;17.45;56.82;99837.23;226908;1269;22543;-75
2024/04/12 17:54:16;;;;;;;6.60;4.70;;;;;;;17.27;57.18;99835.79;226893;1270;25437;-75
2024/04/12 17:59:18;;;;;;;6.80;3.40;;;;;;;17.08;57.53;99831.14;226848;1269;22542;-75
2024/04/12 18:04:22;;;;;;;6.30;3.80;;;;;;;16.90;57.87;99830.87;226964;1260;22542;-75
2024/04/12 18:09:26;;;;;;;8.80;4.70;;;;;;;16.72;58.28;99832.35;226838;1267;22535;-75
2024/04/12 18:14:31;;;;;;;13.70;5.70;;;;;;;16.55;58.67;99835.84;226870;1269;22561;-73
2024/04/12 18:19:34;;;;;;;10.90;5.80;;;;;;;16.40;59.17;99839.45;226950;1272;22545;-74
2024/04/12 18:24:36;;;;;;;10.30;5.80;;;;;;;16.26;59.58;99832.38;226814;1269;22526;-74
2024/04/12 18:29:38;;;;;;;17.80;9.60;;;;;;;16.12;59.82;99832.23;226907;1270;22518;-74
2024/04/12 18:34:41;;;;;;;33.40;22.90;;;;;;;15.99;60.17;99839.79;226819;1266;22483;-75
2024/04/12 18:45:08;;;;;;;32.60;19.30;;;;;;;15.77;60.75;99834.48;226816;1269;22581;-75
2024/04/12 18:50:13;;;;;;;29.80;18.30;;;;;;;15.67;61.02;99838.58;226862;1269;22627;-75
2024/04/12 18:55:16;;;;;;;29.40;17.50;;;;;;;15.57;61.27;99838.58;226907;1272;22555;-74
2024/04/12 19:00:18;;;;;;;30.30;15.90;;;;;;;15.52;61.65;99840.85;226878;1266;22646;-75
2024/04/12 19:05:20;;;;;;;25.00;14.20;;;;;;;15.48;61.70;99837.34;226825;1269;22539;-74
2024/04/12 19:10:22;;;;;;;27.10;15.30;;;;;;;15.50;61.86;99834.85;226843;1273;22720;-74
2024/04/12 19:15:24;;;;;;;18.10;10.80;;;;;;;15.51;61.92;99826.75;226877;1269;22593;-74
2024/04/12 19:20:26;;;;;;;17.40;9.50;;;;;;;15.44;62.32;99826.89;226962;1272;22538;-75
2024/04/12 19:25:28;;;;;;;17.00;9.90;;;;;;;15.30;62.54;99828.14;226849;1272;23422;-74
2024/04/12 19:30:30;;;;;;;16.70;10.10;;;;;;;15.14;62.80;99833.91;226846;1269;22743;-75
2024/04/12 19:35:32;;;;;;;15.80;10.60;;;;;;;14.98;63.17;99833.84;226891;1269;25406;-74
2024/04/12 19:40:34;;;;;;;20.10;10.90;;;;;;;14.83;63.38;99827.71;226825;1273;22538;-75
2024/04/12 19:45:37;;;;;;;19.00;9.30;;;;;;;14.69;63.86;99828.55;226790;1269;22534;-75
2024/04/12 19:50:41;;;;;;;20.30;10.20;;;;;;;14.55;64.00;99819.98;226905;1270;22581;-75
2024/04/12 19:55:54;;;;;;;23.30;13.10;;;;;;;14.42;64.61;99817.98;226795;1273;24222;-75
2024/04/12 20:00:56;;;;;;;22.00;13.10;;;;;;;14.29;64.66;99819.52;226819;1273;22542;-75
2024/04/12 20:05:57;;;;;;;24.30;14.90;;;;;;;14.18;65.48;99820.94;226827;1269;22546;-75
2024/04/12 20:11:04;;;;;;;20.70;14.10;;;;;;;14.08;66.13;99816.61;226869;1273;24809;-75
2024/04/12 20:16:07;;;;;;;22.60;13.70;;;;;;;14.00;66.35;99811.75;226859;1270;24171;-75
2024/04/12 20:21:13;;;;;;;19.10;13.60;;;;;;;13.95;66.89;99808.13;226835;1269;26017;-74
2024/04/12 20:26:16;;;;;;;23.40;15.70;;;;;;;13.90;66.82;99803.11;226902;1272;22559;-74
2024/04/12 20:36:56;;;;;;;33.50;21.90;;;;;;;13.78;67.52;99800.34;226738;1273;22536;-74
2024/04/12 20:41:53;;;;;;;29.70;19.20;;;;;;;13.71;67.69;99798.04;226815;1273;22542;-74
2024/04/12 20:46:55;;;;;;;31.60;18.90;;;;;;;13.66;67.47;99791.38;226933;1272;22692;-74
2024/04/12 20:51:57;;;;;;;29.50;18.30;;;;;;;13.60;67.48;99779.13;226864;1272;22534;-74
2024/04/12 20:56:59;;;;;;;24.70;17.30;;;;;;;13.49;67.82;99774.68;226795;1272;22530;-73
2024/04/12 21:02:01;;;;;;;22.40;15.90;;;;;;;13.39;67.88;99774.08;226881;1269;22543;-74
2024/04/12 21:07:03;;;;;;;23.70;15.40;;;;;;;13.30;67.93;99775.91;226906;1272;22545;-75
2024/04/12 21:12:08;;;;;;;21.60;15.00;;;;;;;13.22;68.10;99774.18;226802;1269;22550;-75
2024/04/12 21:17:12;;;;;;;22.10;15.20;;;;;;;13.15;68.49;99775.87;226814;1273;22580;-75
2024/04/12 21:22:13;;;;;;;26.00;14.70;;;;;;;13.07;68.80;99783.15;226956;1272;23627;-75
2024/04/12 21:27:18;;;;;;;24.10;16.10;;;;;;;12.96;68.98;99789.79;226822;1269;26069;-73
2024/04/12 21:32:22;;;;;;;28.30;16.70;;;;;;;12.85;68.77;99791.13;226814;1272;25269;-75
2024/04/12 21:37:24;;;;;;;26.50;17.70;;;;;;;12.73;68.95;99793.00;226816;1272;22539;-75
2024/04/12 21:42:28;;;;;;;25.90;16.60;;;;;;;12.64;69.27;99792.17;226774;1269;22537;-74
2024/04/12 21:47:30;;;;;;;25.40;17.10;;;;;;;12.56;69.59;99794.83;226925;1272;22530;-74
2024/04/12 21:52:32;;;;;;;23.50;15.60;;;;;;;12.50;70.06;99793.06;226764;1269;22565;-75
2024/04/12 21:57:33;;;;;;;21.90;14.80;;;;;;;12.44;69.89;99791.85;226834;1272;24762;-74
2024/04/12 22:02:35;;;;;;;23.30;14.80;;;;;;;12.38;70.24;99788.03;226796;1272;22926;-74
2024/04/12 22:07:37;;;;;;;20.30;14.40;;;;;;;12.32;70.59;99778.26;226909;1271;22528;-76
2024/04/12 22:12:39;;;;;;;19.20;13.00;;;;;;;12.29;70.84;99782.56;226939;1272;22542;-74
2024/04/12 22:17:41;;;;;;;15.90;11.50;;;;;;;12.25;70.93;99785.09;226842;1267;22556;-74
2024/04/12 22:22:43;;;;;;;18.70;11.80;;;;;;;12.20;70.87;99783.52;226869;1272;22546;-75
2024/04/12 22:27:44;;;;;;;19.80;12.10;;;;;;;12.16;71.43;99788.42;226784;1270;22546;-74
2024/04/12 22:32:46;;;;;;;15.60;12.00;;;;;;;12.12;71.37;99784.91;226987;1272;22546;-74
2024/04/12 22:37:49;;;;;;;21.10;12.40;;;;;;;12.08;71.68;99787.56;226734;1270;22545;-75
2024/04/12 22:42:51;;;;;;;21.20;13.70;;;;;;;12.04;71.48;99774.26;226849;1272;23635;-74
2024/04/12 22:47:53;;;;;;;26.20;14.90;;;;;;;12.00;71.82;99772.65;226762;1269;25401;-74
2024/04/12 22:52:55;;;;;;;19.30;13.70;;;;;;;11.95;71.87;99774.08;226770;1271;23449;-74
2024/04/12 22:57:56;;;;;;;17.80;13.20;;;;;;;11.91;72.31;99776.48;226813;1269;22558;-75
2024/04/12 23:03:00;;;;;;;18.50;12.60;;;;;;;11.87;72.47;99770.90;226765;1269;22889;-76
2024/04/12 23:08:05;;;;;;;18.30;12.20;;;;;;;11.84;72.79;99775.16;226802;1272;22531;-75
2024/04/12 23:13:07;;;;;;;18.30;12.50;;;;;;;11.79;72.65;99776.59;226772;1273;22543;-74
2024/04/12 23:18:11;;;;;;;17.10;11.60;;;;;;;11.72;73.03;99772.91;226754;1269;22561;-74
2024/04/12 23:23:14;;;;;;;16.60;12.10;;;;;;;11.65;72.87;99774.20;226795;1273;22631;-74
2024/04/12 23:28:15;;;;;;;17.20;12.80;;;;;;;11.58;73.16;99775.34;226793;1273;22521;-74
2024/04/12 23:33:17;;;;;;;23.50;14.60;;;;;;;11.50;73.40;99776.65;226884;1273;25236;-74
2024/04/12 23:38:19;;;;;;;17.90;12.80;;;;;;;11.40;73.57;99772.81;226760;1270;24226;-73
2024/04/12 23:43:23;;;;;;;16.40;12.90;;;;;;;11.34;74.10;99766.23;226767;1273;22534;-73
2024/04/12 23:48:25;;;;;;;20.00;12.20;;;;;;;11.27;73.97;99764.63;226762;1271;22569;-74
2024/04/12 23:53:27;;;;;;;17.30;11.30;;;;;;;11.22;74.21;99768.94;226848;1263;22525;-74
2024/04/12 23:58:30;;;;;;;13.30;9.30;;;;;;;11.16;74.04;99766.25;226776;1270;22550;-74
